Berea, Iowa
Current Conditions -  °F | °C
As of 4:15 AM on Sunday 25 Jan 2015 (Local Time) from KAIO Reporting Station
Overcast Overcast  
Wind Chill: 29°   Ceiling: 800
Heat Index: 37°   Visibility: 10mi
Dew Point: 36°   Wind: 14mph
Humidity: 93%   Direction: 350°N
Pressure: 29.63"   Gusts: 21mph
Location:  41.4595°N, 94.8127°W
Report Text: KAIO 251015Z AUTO 35012G18KT 10SM BKN008 BKN011 OVC019 03/02 A2963 RMK AO2
Loading
Personal Weather Stations






























Interactive Weather Map New forecast layout! Learn more

10-Day Weather Forecast

Advertisements
Track Severe Weather on mobile